Eulalia, Pennsylvania
Current Conditions -  °F | °C
As of 3:25 PM on Monday 26 Jan 2015 (Local Time) from KELZ Reporting Station
Light Snow Light Snow  
Wind Chill:   Ceiling: 3000
Heat Index: 15°   Visibility: 3mi
Dew Point: 10°   Wind: 6mph
Humidity: 80%   Direction: 80°E
Pressure: 29.74"   Gusts: NA
Location:  41.7605°N, 77.9728°W
Report Text: KELZ 262025Z AUTO 08005KT 3SM -SN FEW024 OVC030 M09/M12 A2974 RMK AO2 P0001 T10941122
Loading
Personal Weather Stations






























Interactive Weather Map New forecast layout! Learn more

10-Day Weather Forecast

Advertisements
Track Severe Weather on mobile